Time;durP1;ratioP1;P1;durP2;ratioP2;P2;SDS_P1;SDS_P2;PMS_P1;PMS_P2;Temp;Humidity;BMP_temperature;BMP_pressure;BME280_temperature;BME280_humidity;BME280_pressure;Samples;Min_cycle;Max_cycle;Signal;HPM_P1;HPM_P2
2022/10/21 00:00:26;;;;;;;18.92;13.15;;;13.10;99.90;;;;;;5029856;28;20033;-74
2022/10/21 00:02:53;;;;;;;17.15;12.52;;;13.10;99.90;;;;;;5034001;28;20029;-75
2022/10/21 00:05:19;;;;;;;19.90;14.10;;;13.10;99.90;;;;;;5025851;28;20057;-75
2022/10/21 00:07:46;;;;;;;20.85;16.00;;;13.10;99.90;;;;;;5031703;28;20040;-76
2022/10/21 00:10:12;;;;;;;17.45;13.80;;;13.20;99.90;;;;;;5034187;28;20025;-75
2022/10/21 00:12:39;;;;;;;22.80;15.30;;;13.20;99.90;;;;;;5034791;28;20037;-76
2022/10/21 00:15:09;;;;;;;18.67;13.75;;;13.30;99.90;;;;;;5027968;28;20628;-75
2022/10/21 00:17:37;;;;;;;19.02;14.32;;;13.30;99.90;;;;;;5032509;28;20029;-75
2022/10/21 00:20:05;;;;;;;18.10;13.68;;;13.30;99.90;;;;;;5028000;28;20045;-74
2022/10/21 00:22:32;;;;;;;18.15;13.45;;;13.40;99.90;;;;;;5036123;28;20025;-75
2022/10/21 00:24:58;;;;;;;19.23;14.07;;;13.40;99.90;;;;;;5026081;28;20057;-76
2022/10/21 00:27:24;;;;;;;16.35;12.52;;;13.40;99.90;;;;;;5031874;28;20029;-75
2022/10/21 00:29:51;;;;;;;19.00;13.80;;;13.40;99.90;;;;;;5028923;28;20025;-75
2022/10/21 00:32:17;;;;;;;15.15;12.80;;;13.40;99.90;;;;;;5031862;28;20044;-75
2022/10/21 00:34:44;;;;;;;25.42;16.85;;;13.50;99.90;;;;;;5026420;28;20037;-75
2022/10/21 00:37:10;;;;;;;21.13;15.93;;;13.40;99.90;;;;;;5034340;28;20024;-75
2022/10/21 00:39:37;;;;;;;20.15;15.35;;;13.50;99.90;;;;;;5027793;28;20106;-74
2022/10/21 00:42:06;;;;;;;22.65;14.95;;;13.50;99.90;;;;;;5031256;28;20042;-75
2022/10/21 00:44:34;;;;;;;23.65;16.50;;;13.50;99.90;;;;;;5011793;28;20038;-75
2022/10/21 00:47:05;;;;;;;20.88;12.90;;;13.50;99.90;;;;;;5012375;28;20029;-75
2022/10/21 00:49:38;;;;;;;19.35;14.23;;;13.60;99.90;;;;;;5030984;28;20485;-75
2022/10/21 00:52:14;;;;;;;18.30;14.27;;;13.60;99.90;;;;;;5035171;28;20029;-75
2022/10/21 00:54:42;;;;;;;19.15;14.10;;;13.50;99.90;;;;;;5012569;28;20547;-74
2022/10/21 00:57:09;;;;;;;20.45;13.35;;;13.50;99.90;;;;;;5030962;28;20033;-75
2022/10/21 00:59:40;;;;;;;18.25;12.63;;;13.50;99.90;;;;;;5027838;28;20025;-75
2022/10/21 01:02:07;;;;;;;18.10;12.77;;;13.50;99.90;;;;;;5027782;28;20485;-74
2022/10/21 01:04:34;;;;;;;18.92;14.48;;;13.50;99.90;;;;;;5012422;28;20033;-76
2022/10/21 01:07:01;;;;;;;18.58;12.50;;;13.50;99.90;;;;;;5026419;28;20076;-75
2022/10/21 01:09:28;;;;;;;19.52;12.90;;;13.50;99.90;;;;;;5033140;28;20538;-76
2022/10/21 01:11:56;;;;;;;17.20;12.98;;;13.50;99.90;;;;;;5034876;28;20029;-75
2022/10/21 01:14:25;;;;;;;14.85;12.00;;;13.50;99.90;;;;;;5027134;28;20050;-75
2022/10/21 01:17:09;;;;;;;16.67;12.20;;;13.50;99.90;;;;;;5031428;28;20037;-75
2022/10/21 01:20:17;;;;;;;19.08;12.90;;;13.50;99.90;;;;;;5033616;28;20028;-75
2022/10/21 01:23:18;;;;;;;19.88;13.10;;;13.40;99.90;;;;;;5032579;28;20033;-74
2022/10/21 01:25:56;;;;;;;17.02;12.45;;;13.40;99.90;;;;;;5026812;28;20030;-75
2022/10/21 01:28:25;;;;;;;17.58;13.85;;;13.30;99.90;;;;;;5029697;28;20029;-75
2022/10/21 01:31:00;;;;;;;16.38;12.02;;;13.30;99.90;;;;;;5029944;28;20036;-74
2022/10/21 01:33:44;;;;;;;17.50;14.20;;;13.20;99.90;;;;;;5030374;28;20029;-75
2022/10/21 01:36:15;;;;;;;23.83;16.08;;;13.20;99.90;;;;;;5023494;28;20034;-75
2022/10/21 01:38:46;;;;;;;24.27;14.70;;;13.20;99.90;;;;;;5032870;28;20484;-76
2022/10/21 01:41:28;;;;;;;19.15;14.50;;;13.10;99.90;;;;;;5030649;28;20021;-74
2022/10/21 01:44:23;;;;;;;15.20;11.55;;;13.10;99.90;;;;;;5029513;28;20388;-74
2022/10/21 01:47:01;;;;;;;20.10;13.85;;;13.00;99.90;;;;;;5017910;28;20506;-74
2022/10/21 01:49:38;;;;;;;21.73;13.63;;;13.00;99.90;;;;;;5026596;28;20033;-74
2022/10/21 01:52:06;;;;;;;16.27;12.25;;;13.00;99.90;;;;;;5030575;28;20053;-74
2022/10/21 01:54:38;;;;;;;17.80;13.02;;;12.90;99.90;;;;;;5030463;28;20025;-74
2022/10/21 01:57:06;;;;;;;18.38;13.75;;;12.90;99.90;;;;;;5029138;28;20849;-74
2022/10/21 01:59:34;;;;;;;19.40;13.27;;;12.90;99.90;;;;;;5035286;28;20136;-74
2022/10/21 02:02:03;;;;;;;16.65;12.48;;;12.90;99.90;;;;;;5026358;28;20037;-73
2022/10/21 02:04:32;;;;;;;26.00;14.48;;;13.00;99.90;;;;;;5026380;28;20041;-74
2022/10/21 02:06:59;;;;;;;20.52;13.45;;;13.10;99.90;;;;;;5013514;28;20025;-73
2022/10/21 02:09:25;;;;;;;23.98;16.65;;;13.00;99.90;;;;;;5027441;28;20032;-75
2022/10/21 02:11:55;;;;;;;22.88;15.95;;;13.10;99.90;;;;;;5033142;28;20030;-74
2022/10/21 02:14:29;;;;;;;19.45;13.20;;;13.10;99.90;;;;;;5030215;28;20056;-74
2022/10/21 02:16:58;;;;;;;22.33;13.35;;;13.10;99.90;;;;;;5025408;28;20037;-74
2022/10/21 02:19:25;;;;;;;20.92;14.85;;;13.20;99.90;;;;;;5010163;28;20030;-76
2022/10/21 02:21:54;;;;;;;18.95;13.88;;;13.10;99.90;;;;;;5029038;28;20088;-75
2022/10/21 02:24:33;;;;;;;19.33;13.85;;;13.10;99.90;;;;;;5025249;28;20393;-75
2022/10/21 02:26:59;;;;;;;20.15;14.38;;;13.10;99.90;;;;;;5027072;28;20856;-74
2022/10/21 02:29:32;;;;;;;20.08;15.55;;;13.00;99.90;;;;;;5029799;28;20033;-75
2022/10/21 02:32:14;;;;;;;17.33;12.57;;;13.00;99.90;;;;;;5030300;28;20029;-75
2022/10/21 02:35:14;;;;;;;20.30;14.85;;;12.90;99.90;;;;;;5024162;28;20045;-73
2022/10/21 02:37:46;;;;;;;18.65;13.20;;;12.90;99.90;;;;;;5026678;28;20029;-76
2022/10/21 02:40:46;;;;;;;18.10;12.75;;;12.80;99.90;;;;;;5026207;28;20030;-75
2022/10/21 02:43:17;;;;;;;18.15;12.60;;;12.80;99.90;;;;;;5029071;28;20037;-74
2022/10/21 02:45:46;;;;;;;14.73;11.43;;;12.70;99.90;;;;;;5026488;28;20037;-75
2022/10/21 02:48:12;;;;;;;17.25;11.13;;;12.70;99.90;;;;;;5025086;28;20025;-74
2022/10/21 02:50:38;;;;;;;15.20;11.75;;;12.60;99.90;;;;;;5024577;28;20420;-76
2022/10/21 02:53:06;;;;;;;18.42;12.00;;;12.60;99.90;;;;;;5031665;28;20032;-75
2022/10/21 02:55:32;;;;;;;15.05;10.93;;;12.60;99.90;;;;;;5004557;28;20041;-76
2022/10/21 02:57:58;;;;;;;15.02;11.23;;;12.50;99.90;;;;;;5025417;28;20037;-75
2022/10/21 03:00:25;;;;;;;14.43;10.27;;;12.50;99.90;;;;;;5029390;28;20531;-75
2022/10/21 03:02:51;;;;;;;16.17;12.45;;;12.50;99.90;;;;;;5027444;28;20037;-75
2022/10/21 03:05:17;;;;;;;15.60;10.98;;;12.40;99.90;;;;;;5015125;28;20024;-76
2022/10/21 03:07:44;;;;;;;18.30;12.27;;;12.50;99.90;;;;;;5029840;28;20048;-75
2022/10/21 03:10:10;;;;;;;18.38;11.60;;;12.40;99.90;;;;;;5014775;28;20052;-76
2022/10/21 03:12:36;;;;;;;21.75;13.30;;;12.40;99.90;;;;;;5035083;28;20030;-76
2022/10/21 03:15:03;;;;;;;18.73;12.93;;;12.40;99.90;;;;;;5025973;28;20905;-74
2022/10/21 03:17:29;;;;;;;16.95;11.88;;;12.30;99.90;;;;;;5039818;28;20044;-76
2022/10/21 03:19:55;;;;;;;14.80;11.10;;;12.30;99.90;;;;;;5034360;28;20472;-75
2022/10/21 03:22:22;;;;;;;19.73;13.23;;;12.30;99.90;;;;;;5030778;28;20033;-76
2022/10/21 03:24:48;;;;;;;22.52;13.20;;;12.40;99.90;;;;;;5031004;28;20456;-76
2022/10/21 03:27:14;;;;;;;20.98;14.07;;;12.40;99.90;;;;;;5029689;28;20041;-75
2022/10/21 03:29:40;;;;;;;20.33;14.15;;;12.40;99.90;;;;;;5021798;28;20037;-75
2022/10/21 03:32:07;;;;;;;19.85;13.88;;;12.40;99.90;;;;;;5033952;28;20510;-76
2022/10/21 03:34:33;;;;;;;17.52;13.18;;;12.40;99.90;;;;;;5027807;28;20492;-75
2022/10/21 03:36:59;;;;;;;20.77;12.95;;;12.40;99.90;;;;;;5027137;28;20029;-76
2022/10/21 03:39:25;;;;;;;18.30;11.18;;;12.40;99.90;;;;;;5029540;28;20422;-75
2022/10/21 03:41:51;;;;;;;19.15;12.27;;;12.30;99.90;;;;;;5030078;28;20480;-75
2022/10/21 03:44:18;;;;;;;17.33;11.80;;;12.30;99.90;;;;;;5032217;28;20412;-76
2022/10/21 03:46:44;;;;;;;19.63;13.18;;;12.30;99.90;;;;;;5028444;28;20044;-75
2022/10/21 03:49:10;;;;;;;19.17;12.48;;;12.20;99.90;;;;;;5030957;28;20025;-75
2022/10/21 03:51:36;;;;;;;21.50;13.77;;;12.30;99.90;;;;;;5033426;28;20025;-76
2022/10/21 03:54:03;;;;;;;19.27;13.25;;;12.20;99.90;;;;;;5032318;28;20388;-75
2022/10/21 03:56:29;;;;;;;16.42;11.90;;;12.20;99.90;;;;;;5027361;28;20060;-75
2022/10/21 03:58:56;;;;;;;19.38;13.90;;;12.20;99.90;;;;;;5031061;28;20384;-76
2022/10/21 04:01:22;;;;;;;18.42;12.52;;;12.10;99.90;;;;;;5028454;28;20041;-75
2022/10/21 04:03:48;;;;;;;21.30;13.43;;;12.10;99.90;;;;;;5036960;28;20041;-75
2022/10/21 04:06:14;;;;;;;19.15;12.40;;;12.10;99.90;;;;;;5028056;28;20029;-76
2022/10/21 04:08:41;;;;;;;17.77;13.02;;;12.10;99.90;;;;;;5031331;28;20032;-76
2022/10/21 04:11:07;;;;;;;20.33;13.00;;;12.10;99.90;;;;;;5030767;28;20030;-75
2022/10/21 04:13:34;;;;;;;18.90;11.70;;;12.10;99.90;;;;;;5029845;28;20407;-75
2022/10/21 04:16:02;;;;;;;16.95;12.63;;;12.00;99.90;;;;;;5024764;28;20527;-76
2022/10/21 04:18:29;;;;;;;15.68;12.23;;;12.00;99.90;;;;;;5029010;28;20487;-75
2022/10/21 04:20:55;;;;;;;16.73;12.40;;;12.00;99.90;;;;;;5029482;28;20468;-74
2022/10/21 04:23:21;;;;;;;18.70;12.38;;;12.00;99.90;;;;;;5033965;28;20049;-76
2022/10/21 04:25:48;;;;;;;18.05;12.85;;;12.00;99.90;;;;;;5026912;28;20044;-76
2022/10/21 04:28:14;;;;;;;16.77;12.57;;;12.00;99.90;;;;;;5011165;28;20453;-76
2022/10/21 04:30:40;;;;;;;19.55;12.30;;;12.00;99.90;;;;;;5029415;28;20495;-76
2022/10/21 04:33:07;;;;;;;21.15;13.45;;;11.90;99.90;;;;;;5031124;28;20046;-76
2022/10/21 04:35:33;;;;;;;19.98;12.80;;;11.90;99.90;;;;;;5029125;28;20026;-75
2022/10/21 04:37:59;;;;;;;18.20;12.13;;;11.90;99.90;;;;;;5031195;28;20040;-74
2022/10/21 04:40:26;;;;;;;20.13;13.13;;;11.90;99.90;;;;;;5030551;28;20041;-76
2022/10/21 04:42:53;;;;;;;17.42;12.70;;;11.90;99.90;;;;;;5034861;28;20034;-76
2022/10/21 04:45:19;;;;;;;33.47;12.90;;;11.80;99.90;;;;;;5028024;28;20040;-75
2022/10/21 04:47:45;;;;;;;20.05;12.25;;;11.80;99.90;;;;;;5032865;28;20033;-75
2022/10/21 04:50:11;;;;;;;19.27;11.77;;;11.80;99.90;;;;;;5027771;28;20017;-76
2022/10/21 04:52:38;;;;;;;17.73;12.40;;;11.80;99.90;;;;;;5016377;28;20380;-76
2022/10/21 04:55:05;;;;;;;19.52;11.98;;;11.80;99.90;;;;;;5030629;28;20022;-75
2022/10/21 04:57:32;;;;;;;16.85;11.63;;;11.70;99.90;;;;;;5013504;28;20057;-75
2022/10/21 04:59:58;;;;;;;14.63;10.20;;;11.70;99.90;;;;;;5032391;28;20045;-75
2022/10/21 05:02:24;;;;;;;24.48;12.57;;;11.70;99.90;;;;;;5032946;28;20407;-76
2022/10/21 05:04:50;;;;;;;14.45;10.88;;;11.70;99.90;;;;;;5026552;28;20037;-76
2022/10/21 05:07:17;;;;;;;16.73;11.32;;;11.60;99.90;;;;;;5035039;28;20033;-76
2022/10/21 05:09:43;;;;;;;19.17;11.95;;;11.60;99.90;;;;;;5032465;28;20028;-74
2022/10/21 05:12:09;;;;;;;24.00;15.75;;;11.60;99.90;;;;;;5013522;28;20033;-76
2022/10/21 05:14:36;;;;;;;19.95;13.07;;;11.50;99.90;;;;;;5027464;28;20041;-75
2022/10/21 05:17:02;;;;;;;16.83;11.52;;;11.50;99.90;;;;;;5015674;28;20025;-76
2022/10/21 05:19:28;;;;;;;17.17;12.15;;;11.50;99.90;;;;;;5030548;28;20036;-76
2022/10/21 05:21:55;;;;;;;15.88;10.45;;;11.40;99.90;;;;;;5030489;28;20026;-75
2022/10/21 05:24:21;;;;;;;15.80;10.75;;;11.40;99.90;;;;;;5029022;28;20046;-76
2022/10/21 05:26:47;;;;;;;16.92;11.07;;;11.40;99.90;;;;;;5027980;28;20376;-75
2022/10/21 05:29:13;;;;;;;17.38;11.80;;;11.40;99.90;;;;;;5031120;28;20029;-75
2022/10/21 05:31:40;;;;;;;19.95;12.35;;;11.40;99.90;;;;;;5030007;28;20021;-76
2022/10/21 05:34:06;;;;;;;19.88;11.98;;;11.40;99.90;;;;;;5033542;28;20034;-74
2022/10/21 05:36:32;;;;;;;19.80;12.00;;;11.30;99.90;;;;;;5011025;28;20029;-76
2022/10/21 05:38:58;;;;;;;15.75;12.15;;;11.30;99.90;;;;;;5029155;28;20026;-75
2022/10/21 05:41:25;;;;;;;17.65;10.73;;;11.30;99.90;;;;;;5029785;28;20034;-76
2022/10/21 05:43:51;;;;;;;18.13;12.30;;;11.30;99.90;;;;;;5033267;28;20029;-74
2022/10/21 05:46:17;;;;;;;16.88;10.80;;;11.30;99.90;;;;;;5029806;28;20032;-75
2022/10/21 05:48:44;;;;;;;20.38;12.45;;;11.30;99.90;;;;;;5027998;28;20036;-76
2022/10/21 05:51:10;;;;;;;22.65;13.98;;;11.30;99.90;;;;;;5028950;28;20056;-75
2022/10/21 05:53:38;;;;;;;20.75;13.20;;;11.30;99.90;;;;;;5035644;28;20021;-77
2022/10/21 05:56:06;;;;;;;18.52;11.80;;;11.30;99.90;;;;;;5025573;28;20048;-76
2022/10/21 05:58:33;;;;;;;16.92;11.85;;;11.30;99.90;;;;;;5031116;28;20033;-75
2022/10/21 06:01:00;;;;;;;23.52;16.23;;;11.30;99.90;;;;;;5028068;28;20018;-76
2022/10/21 06:03:28;;;;;;;29.35;18.02;;;11.40;99.90;;;;;;5029190;28;20041;-76
2022/10/21 06:05:57;;;;;;;26.85;18.13;;;11.40;99.90;;;;;;5006276;28;20025;-76
2022/10/21 06:08:23;;;;;;;40.35;30.45;;;11.40;99.90;;;;;;5022782;28;20045;-74
2022/10/21 06:11:02;;;;;;;36.85;25.13;;;11.40;99.90;;;;;;5024428;28;20519;-76
2022/10/21 06:13:29;;;;;;;28.92;20.20;;;11.30;99.90;;;;;;5023520;28;20037;-76
2022/10/21 06:15:56;;;;;;;24.80;16.52;;;11.40;99.90;;;;;;5018571;28;20469;-77
2022/10/21 06:18:22;;;;;;;22.05;13.63;;;11.30;99.90;;;;;;5020189;28;20025;-76
2022/10/21 06:20:49;;;;;;;19.58;13.32;;;11.40;99.90;;;;;;5021921;28;20036;-75
2022/10/21 06:23:15;;;;;;;22.45;14.40;;;11.30;99.90;;;;;;5026972;28;20396;-76
2022/10/21 06:25:43;;;;;;;23.65;14.63;;;11.30;99.90;;;;;;5017777;28;20033;-75
2022/10/21 06:28:09;;;;;;;21.60;13.98;;;11.40;99.90;;;;;;5013071;28;20365;-75
2022/10/21 06:30:35;;;;;;;19.98;13.82;;;11.40;99.90;;;;;;5008519;28;20044;-75
2022/10/21 06:33:02;;;;;;;22.23;15.27;;;11.40;99.90;;;;;;5026369;28;20461;-75
2022/10/21 06:35:28;;;;;;;19.45;13.55;;;11.40;99.90;;;;;;5021191;28;20990;-73
2022/10/21 06:37:54;;;;;;;22.27;14.60;;;11.40;99.90;;;;;;5026745;28;20022;-75
2022/10/21 06:40:20;;;;;;;18.73;12.82;;;11.50;99.90;;;;;;5026236;28;20041;-79
2022/10/21 06:42:49;;;;;;;18.85;11.63;;;11.50;99.90;;;;;;5010112;28;20036;-77
2022/10/21 06:45:15;;;;;;;21.35;13.35;;;11.60;99.90;;;;;;5022950;28;20033;-75
2022/10/21 06:47:41;;;;;;;19.48;12.65;;;11.60;99.90;;;;;;5024930;28;20021;-77
2022/10/21 06:50:08;;;;;;;18.58;12.48;;;11.60;99.90;;;;;;5030877;28;20041;-76
2022/10/21 06:52:34;;;;;;;20.52;12.85;;;11.70;99.90;;;;;;5027487;28;20037;-76
2022/10/21 06:55:01;;;;;;;23.98;15.23;;;11.80;99.90;;;;;;5022584;28;20117;-76
2022/10/21 06:57:27;;;;;;;20.60;13.10;;;11.80;99.90;;;;;;5032141;28;20684;-76
2022/10/21 06:59:53;;;;;;;22.00;13.10;;;11.90;99.90;;;;;;5025158;28;20036;-74
2022/10/21 07:02:19;;;;;;;20.35;12.52;;;12.00;99.90;;;;;;5026383;28;20028;-74
2022/10/21 07:04:48;;;;;;;18.23;11.82;;;12.10;99.90;;;;;;5020235;28;20071;-75
2022/10/21 07:07:15;;;;;;;19.45;11.50;;;12.10;99.90;;;;;;5025385;28;20025;-77
2022/10/21 07:09:41;;;;;;;15.20;10.82;;;12.20;99.90;;;;;;5028297;28;20042;-74
2022/10/21 07:12:07;;;;;;;18.88;12.68;;;12.30;99.90;;;;;;5028992;28;20345;-76
2022/10/21 07:14:33;;;;;;;24.50;15.05;;;12.30;99.90;;;;;;5023194;28;20041;-75
2022/10/21 07:17:00;;;;;;;23.95;14.60;;;12.40;99.90;;;;;;5006496;28;20041;-76
2022/10/21 07:19:26;;;;;;;19.02;13.00;;;12.50;99.90;;;;;;5023405;28;20479;-80
2022/10/21 07:21:53;;;;;;;21.65;13.43;;;12.50;99.90;;;;;;5010474;28;20030;-77
2022/10/21 07:24:19;;;;;;;21.30;11.88;;;12.60;99.90;;;;;;5026126;28;20064;-80
2022/10/21 07:26:46;;;;;;;22.35;13.60;;;12.70;99.90;;;;;;5026089;28;20028;-78
2022/10/21 07:29:13;;;;;;;19.88;12.68;;;12.70;99.90;;;;;;5024236;28;20056;-76
2022/10/21 07:31:39;;;;;;;15.40;10.95;;;12.80;99.90;;;;;;5019922;28;20056;-76
2022/10/21 07:34:08;;;;;;;21.33;13.75;;;12.90;99.90;;;;;;5004605;28;20041;-74
2022/10/21 07:36:37;;;;;;;20.00;13.40;;;12.90;99.90;;;;;;5000749;28;20022;-78
2022/10/21 07:39:08;;;;;;;29.02;17.88;;;12.90;99.90;;;;;;5022943;28;20032;-77
2022/10/21 07:41:38;;;;;;;25.17;16.20;;;13.00;99.90;;;;;;5022206;28;20037;-81
2022/10/21 07:44:05;;;;;;;27.48;17.88;;;13.00;99.90;;;;;;5043672;28;20033;-79
2022/10/21 07:46:33;;;;;;;32.30;17.65;;;13.10;99.90;;;;;;5020974;28;20040;-77
2022/10/21 07:48:59;;;;;;;22.02;15.52;;;13.10;99.90;;;;;;5018235;28;20037;-76
2022/10/21 07:51:26;;;;;;;22.67;15.25;;;13.20;99.90;;;;;;5030125;28;20033;-78
2022/10/21 07:53:55;;;;;;;23.10;15.15;;;13.20;99.90;;;;;;5026619;28;20045;-76
2022/10/21 07:56:28;;;;;;;23.33;15.73;;;13.30;99.90;;;;;;5029412;28;20041;-76
2022/10/21 07:58:54;;;;;;;25.05;15.88;;;13.30;99.90;;;;;;5024072;28;20033;-76
2022/10/21 08:01:21;;;;;;;25.23;15.60;;;13.40;99.90;;;;;;5021387;28;20519;-77
2022/10/21 08:03:48;;;;;;;24.77;17.20;;;13.40;99.90;;;;;;5022732;28;20056;-74
2022/10/21 08:06:16;;;;;;;21.13;15.05;;;13.50;99.90;;;;;;5020362;28;20041;-74
2022/10/21 08:08:43;;;;;;;22.17;14.75;;;13.50;99.90;;;;;;5023645;28;20036;-73
2022/10/21 08:11:10;;;;;;;23.10;14.98;;;13.60;99.90;;;;;;5023826;28;20069;-74
2022/10/21 08:13:40;;;;;;;22.00;14.75;;;13.60;99.90;;;;;;5022316;28;21521;-75
2022/10/21 08:16:06;;;;;;;24.40;16.05;;;13.70;99.90;;;;;;5021577;28;20045;-76
2022/10/21 08:18:33;;;;;;;24.42;16.27;;;13.80;99.90;;;;;;5005879;28;20056;-77
2022/10/21 08:21:02;;;;;;;28.73;17.02;;;13.80;99.90;;;;;;5022282;28;20037;-77
2022/10/21 08:23:28;;;;;;;22.35;15.52;;;14.00;99.90;;;;;;5020917;28;20045;-76
2022/10/21 08:25:57;;;;;;;23.13;15.65;;;14.10;99.90;;;;;;5017570;28;20021;-78
2022/10/21 08:28:25;;;;;;;22.77;16.13;;;14.20;99.90;;;;;;5019948;28;20057;-79
2022/10/21 08:30:52;;;;;;;22.77;16.23;;;14.30;99.90;;;;;;5005383;28;20516;-78
2022/10/21 08:33:18;;;;;;;22.92;16.48;;;14.40;99.90;;;;;;5018059;28;20666;-77
2022/10/21 08:35:45;;;;;;;26.55;18.30;;;14.50;99.90;;;;;;5017218;28;20029;-75
2022/10/21 08:38:11;;;;;;;22.15;15.80;;;14.50;99.90;;;;;;5021916;28;20037;-75
2022/10/21 08:40:45;;;;;;;21.88;16.08;;;14.60;99.90;;;;;;5022523;28;20038;-75
2022/10/21 08:43:30;;;;;;;21.25;14.50;;;14.70;99.90;;;;;;5022149;28;20041;-76
2022/10/21 08:46:08;;;;;;;21.40;13.63;;;14.80;99.90;;;;;;5017119;28;20041;-76
2022/10/21 08:48:57;;;;;;;21.42;16.05;;;14.80;99.90;;;;;;5005504;28;20052;-78
2022/10/21 08:51:35;;;;;;;20.80;15.32;;;14.90;99.90;;;;;;5022210;28;20025;-77
2022/10/21 08:54:12;;;;;;;22.23;14.25;;;14.90;99.90;;;;;;5021130;28;20041;-76
2022/10/21 08:56:39;;;;;;;19.83;14.70;;;15.00;99.90;;;;;;5021194;28;20060;-76
2022/10/21 08:59:19;;;;;;;19.90;15.63;;;15.00;99.90;;;;;;5022148;28;20049;-77
2022/10/21 09:02:08;;;;;;;18.23;13.80;;;15.00;99.90;;;;;;5020323;28;20029;-77
2022/10/21 09:04:48;;;;;;;17.30;13.10;;;15.00;99.90;;;;;;5016192;28;20052;-75
2022/10/21 09:07:25;;;;;;;19.08;14.48;;;15.10;99.90;;;;;;5019365;28;20044;-76
2022/10/21 09:09:59;;;;;;;23.30;16.67;;;15.10;99.90;;;;;;5002435;28;20232;-77
2022/10/21 09:12:46;;;;;;;19.30;14.63;;;15.20;99.90;;;;;;5021146;28;20033;-77
2022/10/21 09:15:20;;;;;;;20.85;14.80;;;15.20;99.90;;;;;;5018910;28;20050;-77
2022/10/21 09:18:04;;;;;;;16.50;12.75;;;15.20;99.90;;;;;;5023906;28;20507;-75
2022/10/21 09:21:03;;;;;;;19.83;13.57;;;15.20;99.90;;;;;;5004463;28;20029;-75
2022/10/21 09:24:05;;;;;;;15.93;12.55;;;15.20;99.90;;;;;;5017329;28;20037;-77
2022/10/21 09:26:43;;;;;;;17.27;12.20;;;15.20;99.90;;;;;;5018696;28;20056;-76
2022/10/21 09:29:29;;;;;;;15.45;11.50;;;15.20;99.90;;;;;;5017510;28;20531;-74
2022/10/21 09:32:12;;;;;;;13.70;9.43;;;15.30;99.90;;;;;;4987261;28;20257;-76
2022/10/21 09:34:44;;;;;;;14.35;11.02;;;15.30;99.90;;;;;;5020743;28;20037;-74
2022/10/21 09:37:31;;;;;;;16.23;11.23;;;15.40;99.90;;;;;;5025276;28;20033;-75
2022/10/21 09:40:13;;;;;;;18.15;12.43;;;15.40;99.90;;;;;;5022898;28;20033;-77
2022/10/21 09:42:40;;;;;;;19.80;12.60;;;15.40;99.90;;;;;;5021851;28;20045;-73
2022/10/21 09:45:20;;;;;;;12.35;9.20;;;15.50;99.90;;;;;;5020476;28;20303;-74
2022/10/21 09:48:00;;;;;;;16.17;11.18;;;15.60;99.90;;;;;;5018674;28;20054;-74
2022/10/21 09:50:28;;;;;;;15.90;11.85;;;15.60;99.90;;;;;;5022238;28;20041;-75
2022/10/21 09:53:01;;;;;;;12.95;9.73;;;15.60;99.90;;;;;;5024505;28;20506;-75
2022/10/21 09:55:28;;;;;;;11.02;8.80;;;15.60;99.90;;;;;;5021074;28;20038;-77
2022/10/21 09:58:00;;;;;;;15.50;9.50;;;15.60;99.90;;;;;;5025556;28;20037;-75
2022/10/21 10:00:59;;;;;;;9.68;7.97;;;15.60;99.90;;;;;;5024626;28;20064;-76
2022/10/21 10:03:34;;;;;;;12.27;9.27;;;15.60;99.90;;;;;;5000939;28;20056;-75
2022/10/21 10:06:02;;;;;;;10.55;7.93;;;15.50;99.90;;;;;;5020966;28;20559;-80
2022/10/21 10:08:40;;;;;;;10.65;8.82;;;15.50;99.90;;;;;;5024503;28;20044;-73
2022/10/21 10:11:10;;;;;;;10.65;8.50;;;15.50;99.90;;;;;;5020211;28;20038;-74
2022/10/21 10:13:42;;;;;;;13.90;9.32;;;15.50;99.90;;;;;;5019045;28;20038;-73
2022/10/21 10:16:14;;;;;;;9.23;7.13;;;15.50;99.90;;;;;;5017458;28;20054;-74
2022/10/21 10:18:41;;;;;;;9.82;7.47;;;15.60;99.90;;;;;;5019550;28;20507;-74
2022/10/21 10:21:15;;;;;;;10.73;7.68;;;15.60;99.90;;;;;;5016439;28;20400;-73
2022/10/21 10:23:48;;;;;;;9.10;6.20;;;15.70;99.90;;;;;;5007169;28;20420;-74
2022/10/21 10:26:26;;;;;;;12.02;8.75;;;15.80;99.90;;;;;;5000646;28;20053;-73
2022/10/21 10:28:57;;;;;;;9.90;7.40;;;15.80;99.90;;;;;;5015420;28;20036;-74
2022/10/21 10:31:30;;;;;;;12.18;8.55;;;15.90;99.90;;;;;;5019613;28;20071;-75
2022/10/21 10:34:06;;;;;;;12.18;8.30;;;16.00;99.90;;;;;;5020492;28;20032;-74
2022/10/21 10:36:38;;;;;;;11.73;7.47;;;16.10;99.90;;;;;;5018361;28;20049;-75
2022/10/21 10:39:07;;;;;;;9.25;7.00;;;16.10;99.90;;;;;;5021141;28;20040;-74
2022/10/21 10:41:38;;;;;;;10.52;7.85;;;16.20;99.90;;;;;;4989812;28;20415;-76
2022/10/21 10:44:11;;;;;;;12.27;8.20;;;16.30;99.90;;;;;;5018661;28;20041;-75
2022/10/21 10:46:38;;;;;;;7.65;6.50;;;16.30;99.90;;;;;;5017652;28;20048;-75
2022/10/21 10:49:13;;;;;;;10.65;6.80;;;16.40;99.90;;;;;;5019363;28;20044;-77
2022/10/21 10:51:41;;;;;;;10.95;7.78;;;16.40;99.90;;;;;;5030099;28;20026;-76
2022/10/21 10:54:26;;;;;;;12.18;8.05;;;16.40;99.90;;;;;;5018025;28;20057;-75
2022/10/21 10:57:00;;;;;;;12.85;7.93;;;16.50;99.90;;;;;;5019010;28;20033;-74
2022/10/21 10:59:35;;;;;;;10.27;7.65;;;16.50;99.90;;;;;;5021722;28;20033;-76
2022/10/21 11:02:11;;;;;;;11.57;8.25;;;16.50;99.90;;;;;;5021788;28;20042;-77
2022/10/21 11:04:48;;;;;;;10.07;7.65;;;16.60;99.90;;;;;;5005131;28;20049;-76
2022/10/21 11:07:36;;;;;;;10.93;8.05;;;16.70;99.90;;;;;;5020460;28;20032;-74
2022/10/21 11:10:32;;;;;;;12.77;7.88;;;16.70;99.90;;;;;;5019311;28;20044;-76
2022/10/21 11:13:00;;;;;;;12.80;8.35;;;16.70;99.90;;;;;;5019863;28;20041;-76
2022/10/21 11:15:53;;;;;;;12.15;9.35;;;16.80;99.90;;;;;;5017399;28;20092;-77
2022/10/21 11:18:31;;;;;;;13.40;8.88;;;16.80;99.90;;;;;;4987790;28;20045;-76
2022/10/21 11:21:05;;;;;;;15.45;9.43;;;16.90;99.90;;;;;;5019153;28;20571;-78
2022/10/21 11:23:51;;;;;;;18.17;12.70;;;16.90;99.90;;;;;;5018816;28;20788;-75
2022/10/21 11:26:31;;;;;;;12.77;10.82;;;16.90;99.90;;;;;;5022697;28;20042;-75
2022/10/21 11:29:12;;;;;;;13.45;9.75;;;16.90;99.90;;;;;;5022828;28;20026;-75
2022/10/21 11:32:24;;;;;;;10.93;8.48;;;16.90;99.90;;;;;;5038886;28;20534;-75
2022/10/21 11:35:13;;;;;;;13.98;9.00;;;16.90;99.90;;;;;;5021268;28;20022;-74
2022/10/21 11:38:12;;;;;;;8.50;6.45;;;17.00;99.90;;;;;;5023460;28;20531;-75
2022/10/21 11:40:44;;;;;;;8.40;5.88;;;17.00;99.90;;;;;;5022436;28;20063;-72
2022/10/21 11:43:40;;;;;;;11.80;9.15;;;17.10;99.90;;;;;;5023990;28;21382;-76
2022/10/21 11:46:30;;;;;;;11.40;7.93;;;17.20;99.90;;;;;;5021885;28;20045;-75
2022/10/21 11:49:25;;;;;;;10.18;6.68;;;17.30;99.90;;;;;;5022064;28;20044;-75
2022/10/21 11:52:13;;;;;;;8.10;6.65;;;17.90;99.90;;;;;;5023670;28;20060;-74
2022/10/21 11:55:01;;;;;;;5.85;5.25;;;18.60;99.90;;;;;;5024395;28;20697;-77
2022/10/21 11:58:06;;;;;;;8.57;6.05;;;19.10;99.90;;;;;;5025785;28;20400;-76
2022/10/21 12:01:11;;;;;;;8.85;4.70;;;19.70;99.90;;;;;;5023418;28;20049;-75
2022/10/21 12:03:54;;;;;;;6.97;4.45;;;20.30;99.90;;;;;;5023465;28;20064;-74
2022/10/21 12:06:40;;;;;;;7.78;4.53;;;20.50;99.90;;;;;;5024614;28;20045;-72
2022/10/21 12:09:48;;;;;;;6.13;4.18;;;20.30;99.90;;;;;;5025695;28;20033;-75
2022/10/21 12:12:20;;;;;;;5.10;4.28;;;20.30;99.90;;;;;;5024640;28;20037;-74
2022/10/21 12:14:53;;;;;;;5.97;4.10;;;20.50;99.90;;;;;;5021856;28;20040;-74
2022/10/21 12:17:21;;;;;;;6.40;3.55;;;21.00;99.90;;;;;;5023153;28;20048;-74
2022/10/21 12:20:00;;;;;;;5.82;3.88;;;21.40;99.90;;;;;;5007966;28;20038;-75
2022/10/21 12:22:29;;;;;;;8.52;4.22;;;21.80;99.90;;;;;;5024550;28;20044;-77
2022/10/21 12:25:13;;;;;;;4.45;3.15;;;22.00;99.90;;;;;;5004921;28;20052;-76
2022/10/21 12:27:56;;;;;;;4.82;3.05;;;21.80;99.90;;;;;;5025775;28;20522;-77
2022/10/21 12:30:42;;;;;;;;;;;21.70;99.90;;;;;;5020987;28;20030;-76
2022/10/21 12:33:23;;;;;;;5.70;2.47;;;21.60;99.90;;;;;;5022851;28;19928;-77
2022/10/21 12:35:53;;;;;;;4.10;2.75;;;21.50;99.90;;;;;;5024593;28;20040;-76
2022/10/21 12:38:44;;;;;;;7.13;3.97;;;21.30;99.90;;;;;;5011938;28;20037;-76
2022/10/21 12:41:24;;;;;;;5.75;4.20;;;21.20;99.90;;;;;;5022759;28;20044;-77
2022/10/21 12:43:53;;;;;;;4.78;3.08;;;21.00;99.90;;;;;;5024361;28;20036;-75
2022/10/21 12:46:26;;;;;;;5.20;3.22;;;20.80;99.90;;;;;;5025482;28;20036;-72
2022/10/21 12:48:53;;;;;;;5.40;3.20;;;20.70;99.90;;;;;;5023385;28;20057;-74
2022/10/21 12:51:27;;;;;;;4.45;2.70;;;20.50;99.90;;;;;;5025601;28;20608;-73
2022/10/21 12:54:07;;;;;;;4.55;2.50;;;20.40;99.90;;;;;;5021649;28;20029;-71